Главная страница
METAR-TAF:

METAR-TAF

Аэропорты :

Дашогуз, Туркмения

широта: 41-45-53N, долгота: 059-49-59E, высота над уровнем моря: 83 м

Текущие метеонаблюдения

Эта сводка был подготовлена 39 минут назад, в 11:00 UTC
Ветер 14 Узел от северо-западный
Температура 0°C
Влажность 69%
Давление 1026 hPa
Видимость 10 км и более
Сплошная облачность на высоте 2400 фута

METAR: UTAT 171100Z 31014KT 9999 OVC024 M00/M05 Q1026 R26/CLRD70 NOSIG

Время: 16:39 (11:39 UTC)

Прогноз

Эта сводка был подготовлена 1 час и 0 минут назад, в 10:39 UTC
Прогноз действительный с 17-го 12 UTC до 18-го 12 UTC
Ветер 16 Узел от северный
Видимость: 6000 м
Рассеянная облачность на высоте 2000 фута
Сплошная облачность на высоте 3000 фута
временами
С 17-го 12 UTC до 17-го 18 UTC
Ветер 12 Узел от западно-северо-западный с порывами до 22 Узел
временами
С 17-го 18 UTC до 17-го 24 UTC
Ветер 16 Узел от северо-восточный

TAF: UTAT 171039Z 1712/1812 35016KT 6000 BKN020 OVC030 530003 TEMPO 1712/1718 30012G22KT TEMPO 1718/1724 04016KT

Метеонаблюдения и прогнозы для более 4000 аэропортов (сводки METAR и TAF).

Имеющиеся станции представлены на карте желтыми и красными точками.

Чтобы увидеть название станции, наведите на нее мышь.

Затем щелкните, чтобы увидеть метеонаблюдения и метеопрогнозы.

Управление картой: чтобы увеличить масштаб, щелкните зеленые кнопки с черным крестиком; чтобы уменьшить масштаб, щелкните зеленую кнопку с тире; для просмотра соседних карт щелкайте зеленые стрелки.


METAR-TAF: